sensor_id;sensor_type;location;lat;lon;timestamp;temperature;humidity
15638;DHT22;26604;53.596;10.042;2023-03-08T00:00:41;0.00;99.90
15638;DHT22;26604;53.596;10.042;2023-03-08T00:03:10;0.00;99.90
15638;DHT22;26604;53.596;10.042;2023-03-08T00:05:37;0.00;99.90
15638;DHT22;26604;53.596;10.042;2023-03-08T00:08:04;0.00;99.90
15638;DHT22;26604;53.596;10.042;2023-03-08T00:10:32;0.00;99.90
15638;DHT22;26604;53.596;10.042;2023-03-08T00:12:59;0.00;99.90
15638;DHT22;26604;53.596;10.042;2023-03-08T00:15:26;0.00;99.90
15638;DHT22;26604;53.596;10.042;2023-03-08T00:17:52;0.00;99.90
15638;DHT22;26604;53.596;10.042;2023-03-08T00:20:19;0.00;99.90
15638;DHT22;26604;53.596;10.042;2023-03-08T00:22:46;0.00;99.90
15638;DHT22;26604;53.596;10.042;2023-03-08T00:25:12;0.00;99.90
15638;DHT22;26604;53.596;10.042;2023-03-08T00:27:42;-0.10;99.90
15638;DHT22;26604;53.596;10.042;2023-03-08T00:30:09;0.00;99.90
15638;DHT22;26604;53.596;10.042;2023-03-08T00:32:36;-0.10;99.90
15638;DHT22;26604;53.596;10.042;2023-03-08T00:35:03;-0.10;99.90
15638;DHT22;26604;53.596;10.042;2023-03-08T00:37:30;-0.10;99.90
15638;DHT22;26604;53.596;10.042;2023-03-08T00:39:56;-0.20;99.90
15638;DHT22;26604;53.596;10.042;2023-03-08T00:42:23;-0.20;99.90
15638;DHT22;26604;53.596;10.042;2023-03-08T00:55:13;-0.10;99.90
15638;DHT22;26604;53.596;10.042;2023-03-08T01:18:24;-0.60;99.90
15638;DHT22;26604;53.596;10.042;2023-03-08T01:28:38;-0.60;99.90
15638;DHT22;26604;53.596;10.042;2023-03-08T01:31:05;-1.40;99.90
15638;DHT22;26604;53.596;10.042;2023-03-08T01:33:34;-0.60;99.90
15638;DHT22;26604;53.596;10.042;2023-03-08T01:36:02;-0.70;99.90
15638;DHT22;26604;53.596;10.042;2023-03-08T01:38:30;-0.60;99.90
15638;DHT22;26604;53.596;10.042;2023-03-08T01:40:58;0.50;99.90
15638;DHT22;26604;53.596;10.042;2023-03-08T01:43:25;-3.00;99.90
15638;DHT22;26604;53.596;10.042;2023-03-08T01:48:49;-0.90;99.90
15638;DHT22;26604;53.596;10.042;2023-03-08T01:51:19;-1.10;99.90
15638;DHT22;26604;53.596;10.042;2023-03-08T01:53:47;-0.20;99.90
15638;DHT22;26604;53.596;10.042;2023-03-08T01:56:14;-3.30;99.90
15638;DHT22;26604;53.596;10.042;2023-03-08T01:58:43;-1.00;99.90
15638;DHT22;26604;53.596;10.042;2023-03-08T02:01:11;-2.60;99.90
15638;DHT22;26604;53.596;10.042;2023-03-08T02:03:38;0.60;99.90
15638;DHT22;26604;53.596;10.042;2023-03-08T02:19:04;-1.30;99.90
15638;DHT22;26604;53.596;10.042;2023-03-08T02:21:31;-1.10;99.90
15638;DHT22;26604;53.596;10.042;2023-03-08T02:24:03;-1.20;99.90
15638;DHT22;26604;53.596;10.042;2023-03-08T02:26:30;0.50;99.90
15638;DHT22;26604;53.596;10.042;2023-03-08T02:28:58;-0.70;99.90
15638;DHT22;26604;53.596;10.042;2023-03-08T02:31:24;-0.90;99.90
15638;DHT22;26604;53.596;10.042;2023-03-08T02:41:39;-0.90;99.90
15638;DHT22;26604;53.596;10.042;2023-03-08T02:44:06;-0.70;99.90
15638;DHT22;26604;53.596;10.042;2023-03-08T02:46:33;-1.00;99.90
15638;DHT22;26604;53.596;10.042;2023-03-08T02:49:00;-0.10;99.90
15638;DHT22;26604;53.596;10.042;2023-03-08T02:53:59;-2.30;99.90
15638;DHT22;26604;53.596;10.042;2023-03-08T02:56:26;0.30;99.90
15638;DHT22;26604;53.596;10.042;2023-03-08T02:58:54;-1.50;99.90
15638;DHT22;26604;53.596;10.042;2023-03-08T03:01:21;0.10;99.90
15638;DHT22;26604;53.596;10.042;2023-03-08T03:11:35;0.30;99.90
15638;DHT22;26604;53.596;10.042;2023-03-08T03:14:03;0.40;99.90
15638;DHT22;26604;53.596;10.042;2023-03-08T03:16:30;1.10;99.90
15638;DHT22;26604;53.596;10.042;2023-03-08T03:18:57;1.70;99.90
15638;DHT22;26604;53.596;10.042;2023-03-08T03:21:25;0.00;99.90
15638;DHT22;26604;53.596;10.042;2023-03-08T03:31:39;0.40;99.90
15638;DHT22;26604;53.596;10.042;2023-03-08T03:34:06;1.60;99.90
15638;DHT22;26604;53.596;10.042;2023-03-08T03:36:33;1.00;99.90
15638;DHT22;26604;53.596;10.042;2023-03-08T03:39:00;0.80;99.90
15638;DHT22;26604;53.596;10.042;2023-03-08T03:41:28;1.30;99.90
15638;DHT22;26604;53.596;10.042;2023-03-08T03:43:58;2.50;99.90
15638;DHT22;26604;53.596;10.042;2023-03-08T03:46:25;0.30;99.90
15638;DHT22;26604;53.596;10.042;2023-03-08T03:48:53;2.50;99.90
15638;DHT22;26604;53.596;10.042;2023-03-08T03:51:21;0.60;99.90
15638;DHT22;26604;53.596;10.042;2023-03-08T03:53:48;1.20;99.90
15638;DHT22;26604;53.596;10.042;2023-03-08T04:06:38;0.60;99.90
15638;DHT22;26604;53.596;10.042;2023-03-08T04:09:11;0.00;99.90
15638;DHT22;26604;53.596;10.042;2023-03-08T04:11:38;0.40;99.90
15638;DHT22;26604;53.596;10.042;2023-03-08T04:16:41;0.60;99.90
15638;DHT22;26604;53.596;10.042;2023-03-08T04:19:09;-0.80;99.90
15638;DHT22;26604;53.596;10.042;2023-03-08T04:21:36;0.50;99.90
15638;DHT22;26604;53.596;10.042;2023-03-08T05:08:06;0.90;99.90
15638;DHT22;26604;53.596;10.042;2023-03-08T05:15:44;1.00;99.90
15638;DHT22;26604;53.596;10.042;2023-03-08T05:31:09;1.00;99.90
15638;DHT22;26604;53.596;10.042;2023-03-08T05:46:35;1.00;99.90
15638;DHT22;26604;53.596;10.042;2023-03-08T05:49:03;1.10;99.90
15638;DHT22;26604;53.596;10.042;2023-03-08T05:51:30;0.80;99.90
15638;DHT22;26604;53.596;10.042;2023-03-08T05:53:56;1.10;99.90
15638;DHT22;26604;53.596;10.042;2023-03-08T05:56:26;0.40;99.90
15638;DHT22;26604;53.596;10.042;2023-03-08T05:58:53;-0.20;99.90
15638;DHT22;26604;53.596;10.042;2023-03-08T06:01:24;2.20;99.90
15638;DHT22;26604;53.596;10.042;2023-03-08T06:03:54;1.20;99.90
15638;DHT22;26604;53.596;10.042;2023-03-08T06:06:22;2.40;99.90
15638;DHT22;26604;53.596;10.042;2023-03-08T06:08:49;1.10;99.90
15638;DHT22;26604;53.596;10.042;2023-03-08T06:11:16;1.00;99.90
15638;DHT22;26604;53.596;10.042;2023-03-08T06:13:43;1.10;99.90
15638;DHT22;26604;53.596;10.042;2023-03-08T06:16:10;1.00;99.90
15638;DHT22;26604;53.596;10.042;2023-03-08T06:18:37;1.00;99.90
15638;DHT22;26604;53.596;10.042;2023-03-08T06:21:06;1.00;99.90
15638;DHT22;26604;53.596;10.042;2023-03-08T06:23:33;1.20;99.90
15638;DHT22;26604;53.596;10.042;2023-03-08T06:26:01;1.10;99.90
15638;DHT22;26604;53.596;10.042;2023-03-08T06:28:28;1.30;99.90
15638;DHT22;26604;53.596;10.042;2023-03-08T06:30:56;0.80;99.90
15638;DHT22;26604;53.596;10.042;2023-03-08T06:33:23;2.80;99.90
15638;DHT22;26604;53.596;10.042;2023-03-08T06:35:54;1.20;99.90
15638;DHT22;26604;53.596;10.042;2023-03-08T06:38:23;1.10;99.90
15638;DHT22;26604;53.596;10.042;2023-03-08T06:40:50;1.10;99.90
15638;DHT22;26604;53.596;10.042;2023-03-08T06:43:17;3.00;99.90
15638;DHT22;26604;53.596;10.042;2023-03-08T06:45:43;1.10;99.90
15638;DHT22;26604;53.596;10.042;2023-03-08T06:48:10;1.10;99.90
15638;DHT22;26604;53.596;10.042;2023-03-08T06:50:37;3.80;99.90
15638;DHT22;26604;53.596;10.042;2023-03-08T06:53:04;1.30;99.90
15638;DHT22;26604;53.596;10.042;2023-03-08T06:55:32;1.30;99.90
15638;DHT22;26604;53.596;10.042;2023-03-08T06:57:59;1.30;99.90
15638;DHT22;26604;53.596;10.042;2023-03-08T07:00:26;4.10;99.90
15638;DHT22;26604;53.596;10.042;2023-03-08T07:02:53;0.80;99.90
15638;DHT22;26604;53.596;10.042;2023-03-08T07:05:20;1.40;99.90
15638;DHT22;26604;53.596;10.042;2023-03-08T07:07:47;3.30;99.90
15638;DHT22;26604;53.596;10.042;2023-03-08T07:10:17;3.80;99.90
15638;DHT22;26604;53.596;10.042;2023-03-08T07:12:46;1.50;99.90
15638;DHT22;26604;53.596;10.042;2023-03-08T07:15:16;1.40;99.90
15638;DHT22;26604;53.596;10.042;2023-03-08T07:17:43;1.40;99.90
15638;DHT22;26604;53.596;10.042;2023-03-08T07:20:11;1.40;99.90
15638;DHT22;26604;53.596;10.042;2023-03-08T07:22:38;1.40;99.90
15638;DHT22;26604;53.596;10.042;2023-03-08T07:25:06;1.60;99.90
15638;DHT22;26604;53.596;10.042;2023-03-08T07:27:33;1.50;99.90
15638;DHT22;26604;53.596;10.042;2023-03-08T07:30:01;1.60;99.90
15638;DHT22;26604;53.596;10.042;2023-03-08T07:32:28;1.50;99.90
15638;DHT22;26604;53.596;10.042;2023-03-08T07:34:54;1.60;99.90
15638;DHT22;26604;53.596;10.042;2023-03-08T07:37:21;1.60;99.90
15638;DHT22;26604;53.596;10.042;2023-03-08T07:39:48;1.70;99.90
15638;DHT22;26604;53.596;10.042;2023-03-08T07:42:15;1.70;99.90
15638;DHT22;26604;53.596;10.042;2023-03-08T07:44:42;1.70;99.90
15638;DHT22;26604;53.596;10.042;2023-03-08T07:47:10;1.80;99.90
15638;DHT22;26604;53.596;10.042;2023-03-08T07:49:37;1.80;99.90
15638;DHT22;26604;53.596;10.042;2023-03-08T07:52:04;1.90;99.90
15638;DHT22;26604;53.596;10.042;2023-03-08T07:54:30;1.90;99.90
15638;DHT22;26604;53.596;10.042;2023-03-08T07:56:57;2.00;99.90
15638;DHT22;26604;53.596;10.042;2023-03-08T07:59:24;2.10;99.90
15638;DHT22;26604;53.596;10.042;2023-03-08T08:01:50;2.10;99.90
15638;DHT22;26604;53.596;10.042;2023-03-08T08:04:18;2.10;99.90
15638;DHT22;26604;53.596;10.042;2023-03-08T08:06:47;2.10;99.90
15638;DHT22;26604;53.596;10.042;2023-03-08T08:09:14;2.20;99.90
15638;DHT22;26604;53.596;10.042;2023-03-08T08:11:41;2.20;99.90
15638;DHT22;26604;53.596;10.042;2023-03-08T08:14:08;2.30;99.90
15638;DHT22;26604;53.596;10.042;2023-03-08T08:16:35;2.30;99.90
15638;DHT22;26604;53.596;10.042;2023-03-08T08:19:02;2.40;99.90
15638;DHT22;26604;53.596;10.042;2023-03-08T08:21:30;2.40;99.90
15638;DHT22;26604;53.596;10.042;2023-03-08T08:23:56;2.40;99.90
15638;DHT22;26604;53.596;10.042;2023-03-08T08:26:24;2.50;99.90
15638;DHT22;26604;53.596;10.042;2023-03-08T08:28:51;2.60;99.90
15638;DHT22;26604;53.596;10.042;2023-03-08T08:31:19;2.60;99.90
15638;DHT22;26604;53.596;10.042;2023-03-08T08:33:46;2.50;99.90
15638;DHT22;26604;53.596;10.042;2023-03-08T08:36:13;2.50;99.90
15638;DHT22;26604;53.596;10.042;2023-03-08T08:38:42;2.50;99.90
15638;DHT22;26604;53.596;10.042;2023-03-08T08:41:10;2.60;99.90
15638;DHT22;26604;53.596;10.042;2023-03-08T08:43:39;2.60;99.90
15638;DHT22;26604;53.596;10.042;2023-03-08T08:46:06;2.70;99.90
15638;DHT22;26604;53.596;10.042;2023-03-08T08:48:33;2.70;99.90
15638;DHT22;26604;53.596;10.042;2023-03-08T08:51:01;2.80;99.90
15638;DHT22;26604;53.596;10.042;2023-03-08T08:53:28;3.00;99.90
15638;DHT22;26604;53.596;10.042;2023-03-08T08:55:56;3.10;99.90
15638;DHT22;26604;53.596;10.042;2023-03-08T08:58:25;3.20;99.90
15638;DHT22;26604;53.596;10.042;2023-03-08T09:00:52;3.20;99.90
15638;DHT22;26604;53.596;10.042;2023-03-08T09:03:19;3.10;99.90
15638;DHT22;26604;53.596;10.042;2023-03-08T09:05:45;3.10;99.90
15638;DHT22;26604;53.596;10.042;2023-03-08T09:08:13;3.10;99.90
15638;DHT22;26604;53.596;10.042;2023-03-08T09:10:41;3.20;99.90
15638;DHT22;26604;53.596;10.042;2023-03-08T09:13:09;3.30;99.90
15638;DHT22;26604;53.596;10.042;2023-03-08T09:15:36;3.40;99.90
15638;DHT22;26604;53.596;10.042;2023-03-08T09:18:02;3.30;99.90
15638;DHT22;26604;53.596;10.042;2023-03-08T09:20:30;3.30;99.90
15638;DHT22;26604;53.596;10.042;2023-03-08T09:22:56;3.20;99.90
15638;DHT22;26604;53.596;10.042;2023-03-08T09:25:23;3.10;99.90
15638;DHT22;26604;53.596;10.042;2023-03-08T09:27:50;3.00;99.90
15638;DHT22;26604;53.596;10.042;2023-03-08T09:30:18;3.00;99.90
15638;DHT22;26604;53.596;10.042;2023-03-08T09:32:45;2.90;99.90
15638;DHT22;26604;53.596;10.042;2023-03-08T09:35:12;2.40;99.90
15638;DHT22;26604;53.596;10.042;2023-03-08T09:37:40;4.90;99.90
15638;DHT22;26604;53.596;10.042;2023-03-08T09:40:10;3.50;99.90
15638;DHT22;26604;53.596;10.042;2023-03-08T09:42:42;3.00;99.90
15638;DHT22;26604;53.596;10.042;2023-03-08T09:45:24;3.00;99.90
15638;DHT22;26604;53.596;10.042;2023-03-08T09:47:53;3.10;99.90
15638;DHT22;26604;53.596;10.042;2023-03-08T09:50:30;3.00;99.90
15638;DHT22;26604;53.596;10.042;2023-03-08T09:52:58;3.00;99.90
15638;DHT22;26604;53.596;10.042;2023-03-08T09:55:26;3.00;99.90
15638;DHT22;26604;53.596;10.042;2023-03-08T09:57:55;3.10;99.90
15638;DHT22;26604;53.596;10.042;2023-03-08T10:00:25;3.10;99.90
15638;DHT22;26604;53.596;10.042;2023-03-08T10:02:56;3.20;99.90
15638;DHT22;26604;53.596;10.042;2023-03-08T10:05:28;3.40;99.90
15638;DHT22;26604;53.596;10.042;2023-03-08T10:07:59;3.60;99.90
15638;DHT22;26604;53.596;10.042;2023-03-08T10:10:33;3.70;99.90
15638;DHT22;26604;53.596;10.042;2023-03-08T10:13:18;3.70;99.90
15638;DHT22;26604;53.596;10.042;2023-03-08T10:15:50;3.70;99.90
15638;DHT22;26604;53.596;10.042;2023-03-08T10:18:20;3.70;99.90
15638;DHT22;26604;53.596;10.042;2023-03-08T10:20:49;3.80;99.90
15638;DHT22;26604;53.596;10.042;2023-03-08T10:23:17;3.90;99.90
15638;DHT22;26604;53.596;10.042;2023-03-08T10:25:44;3.90;99.90
15638;DHT22;26604;53.596;10.042;2023-03-08T10:28:11;4.00;99.90
15638;DHT22;26604;53.596;10.042;2023-03-08T10:30:40;3.90;99.90
15638;DHT22;26604;53.596;10.042;2023-03-08T10:33:10;3.90;99.90
15638;DHT22;26604;53.596;10.042;2023-03-08T10:35:37;3.90;99.90
15638;DHT22;26604;53.596;10.042;2023-03-08T10:38:04;3.80;99.90
15638;DHT22;26604;53.596;10.042;2023-03-08T10:40:40;3.80;99.90
15638;DHT22;26604;53.596;10.042;2023-03-08T10:43:06;3.70;99.90
15638;DHT22;26604;53.596;10.042;2023-03-08T10:45:40;3.70;99.90
15638;DHT22;26604;53.596;10.042;2023-03-08T10:48:16;3.70;99.90
15638;DHT22;26604;53.596;10.042;2023-03-08T10:50:45;3.80;99.90
15638;DHT22;26604;53.596;10.042;2023-03-08T10:53:14;3.90;99.90
15638;DHT22;26604;53.596;10.042;2023-03-08T10:55:43;4.00;99.90
15638;DHT22;26604;53.596;10.042;2023-03-08T10:58:23;4.00;99.90
15638;DHT22;26604;53.596;10.042;2023-03-08T11:00:52;4.10;99.90
15638;DHT22;26604;53.596;10.042;2023-03-08T11:03:22;4.30;99.90
15638;DHT22;26604;53.596;10.042;2023-03-08T11:05:50;4.30;99.90
15638;DHT22;26604;53.596;10.042;2023-03-08T11:08:18;4.40;99.90
15638;DHT22;26604;53.596;10.042;2023-03-08T11:10:45;4.50;99.90
15638;DHT22;26604;53.596;10.042;2023-03-08T11:13:16;4.70;99.90
15638;DHT22;26604;53.596;10.042;2023-03-08T11:15:46;4.70;99.90
15638;DHT22;26604;53.596;10.042;2023-03-08T11:18:17;4.90;99.90
15638;DHT22;26604;53.596;10.042;2023-03-08T11:20:50;5.00;99.90
15638;DHT22;26604;53.596;10.042;2023-03-08T11:23:20;5.20;99.90
15638;DHT22;26604;53.596;10.042;2023-03-08T11:25:47;5.30;99.90
15638;DHT22;26604;53.596;10.042;2023-03-08T11:31:10;5.40;99.90
15638;DHT22;26604;53.596;10.042;2023-03-08T11:36:31;5.50;99.90
15638;DHT22;26604;53.596;10.042;2023-03-08T11:39:02;5.70;99.90
15638;DHT22;26604;53.596;10.042;2023-03-08T11:41:33;5.70;99.90
15638;DHT22;26604;53.596;10.042;2023-03-08T11:44:11;5.90;99.90
15638;DHT22;26604;53.596;10.042;2023-03-08T11:46:44;6.00;99.90
15638;DHT22;26604;53.596;10.042;2023-03-08T11:49:16;6.10;99.90
15638;DHT22;26604;53.596;10.042;2023-03-08T11:51:48;6.10;99.90
15638;DHT22;26604;53.596;10.042;2023-03-08T11:54:20;6.20;99.90
15638;DHT22;26604;53.596;10.042;2023-03-08T11:56:50;6.20;99.90
15638;DHT22;26604;53.596;10.042;2023-03-08T11:59:20;6.20;99.90
15638;DHT22;26604;53.596;10.042;2023-03-08T12:01:50;6.20;99.90
15638;DHT22;26604;53.596;10.042;2023-03-08T12:04:20;6.20;99.90
15638;DHT22;26604;53.596;10.042;2023-03-08T12:06:51;6.40;99.90
15638;DHT22;26604;53.596;10.042;2023-03-08T12:09:22;6.70;99.90
15638;DHT22;26604;53.596;10.042;2023-03-08T12:11:52;6.60;99.90
15638;DHT22;26604;53.596;10.042;2023-03-08T12:14:21;6.50;99.90
15638;DHT22;26604;53.596;10.042;2023-03-08T12:16:51;6.50;99.90
15638;DHT22;26604;53.596;10.042;2023-03-08T12:19:23;6.40;99.90
15638;DHT22;26604;53.596;10.042;2023-03-08T12:21:54;6.40;99.90
15638;DHT22;26604;53.596;10.042;2023-03-08T12:24:26;6.40;99.90
15638;DHT22;26604;53.596;10.042;2023-03-08T12:26:57;6.50;99.90
15638;DHT22;26604;53.596;10.042;2023-03-08T12:29:25;6.50;99.90
15638;DHT22;26604;53.596;10.042;2023-03-08T12:31:53;6.40;99.90
15638;DHT22;26604;53.596;10.042;2023-03-08T12:34:26;6.30;99.90
15638;DHT22;26604;53.596;10.042;2023-03-08T12:36:54;6.30;99.90
15638;DHT22;26604;53.596;10.042;2023-03-08T12:39:22;6.40;99.90
15638;DHT22;26604;53.596;10.042;2023-03-08T12:41:55;6.60;99.90
15638;DHT22;26604;53.596;10.042;2023-03-08T12:44:23;6.70;99.90
15638;DHT22;26604;53.596;10.042;2023-03-08T12:46:51;6.80;99.90
15638;DHT22;26604;53.596;10.042;2023-03-08T12:49:19;6.80;99.90
15638;DHT22;26604;53.596;10.042;2023-03-08T12:51:55;6.90;99.90
15638;DHT22;26604;53.596;10.042;2023-03-08T12:54:22;6.90;99.90
15638;DHT22;26604;53.596;10.042;2023-03-08T12:56:50;6.80;99.90
15638;DHT22;26604;53.596;10.042;2023-03-08T12:59:28;6.80;99.90
15638;DHT22;26604;53.596;10.042;2023-03-08T13:02:02;6.70;99.90
15638;DHT22;26604;53.596;10.042;2023-03-08T13:04:29;6.50;99.90
15638;DHT22;26604;53.596;10.042;2023-03-08T13:07:07;6.30;99.90
15638;DHT22;26604;53.596;10.042;2023-03-08T13:09:35;6.20;99.90
15638;DHT22;26604;53.596;10.042;2023-03-08T13:12:10;5.90;99.90
15638;DHT22;26604;53.596;10.042;2023-03-08T13:14:39;5.70;99.90
15638;DHT22;26604;53.596;10.042;2023-03-08T13:17:30;5.60;99.90
15638;DHT22;26604;53.596;10.042;2023-03-08T13:19:58;5.60;99.90
15638;DHT22;26604;53.596;10.042;2023-03-08T13:22:28;5.60;99.90
15638;DHT22;26604;53.596;10.042;2023-03-08T13:24:57;5.60;99.90
15638;DHT22;26604;53.596;10.042;2023-03-08T13:27:27;5.70;99.90
15638;DHT22;26604;53.596;10.042;2023-03-08T13:29:58;5.80;99.90
15638;DHT22;26604;53.596;10.042;2023-03-08T13:32:26;5.80;99.90
15638;DHT22;26604;53.596;10.042;2023-03-08T13:34:57;5.80;99.90
15638;DHT22;26604;53.596;10.042;2023-03-08T13:37:24;5.70;99.90
15638;DHT22;26604;53.596;10.042;2023-03-08T13:39:53;5.70;99.90
15638;DHT22;26604;53.596;10.042;2023-03-08T13:42:21;5.70;99.90
15638;DHT22;26604;53.596;10.042;2023-03-08T13:44:49;5.80;99.90
15638;DHT22;26604;53.596;10.042;2023-03-08T13:47:25;5.80;99.90
15638;DHT22;26604;53.596;10.042;2023-03-08T13:49:56;5.80;99.90
15638;DHT22;26604;53.596;10.042;2023-03-08T13:52:24;5.80;99.90
15638;DHT22;26604;53.596;10.042;2023-03-08T13:54:55;5.90;99.90
15638;DHT22;26604;53.596;10.042;2023-03-08T13:57:23;6.00;99.90
15638;DHT22;26604;53.596;10.042;2023-03-08T13:59:51;6.10;99.90
15638;DHT22;26604;53.596;10.042;2023-03-08T14:02:19;6.20;99.90
15638;DHT22;26604;53.596;10.042;2023-03-08T14:04:46;6.20;99.90
15638;DHT22;26604;53.596;10.042;2023-03-08T14:07:18;6.20;99.90
15638;DHT22;26604;53.596;10.042;2023-03-08T14:09:45;6.20;99.90
15638;DHT22;26604;53.596;10.042;2023-03-08T14:12:14;6.20;99.90
15638;DHT22;26604;53.596;10.042;2023-03-08T14:14:41;6.20;99.90
15638;DHT22;26604;53.596;10.042;2023-03-08T14:17:12;6.10;99.90
15638;DHT22;26604;53.596;10.042;2023-03-08T14:19:43;6.00;99.90
15638;DHT22;26604;53.596;10.042;2023-03-08T14:22:10;5.90;99.90
15638;DHT22;26604;53.596;10.042;2023-03-08T14:24:38;5.80;99.90
15638;DHT22;26604;53.596;10.042;2023-03-08T14:27:22;5.70;99.90
15638;DHT22;26604;53.596;10.042;2023-03-08T14:30:00;5.50;99.90
15638;DHT22;26604;53.596;10.042;2023-03-08T14:32:30;5.30;99.90
15638;DHT22;26604;53.596;10.042;2023-03-08T14:35:04;5.30;99.90
15638;DHT22;26604;53.596;10.042;2023-03-08T14:37:31;5.20;99.90
15638;DHT22;26604;53.596;10.042;2023-03-08T14:40:13;5.80;99.90
15638;DHT22;26604;53.596;10.042;2023-03-08T14:42:44;4.90;99.90
15638;DHT22;26604;53.596;10.042;2023-03-08T14:45:18;4.80;99.90
15638;DHT22;26604;53.596;10.042;2023-03-08T14:47:48;4.70;99.90
15638;DHT22;26604;53.596;10.042;2023-03-08T14:50:19;4.70;99.90
15638;DHT22;26604;53.596;10.042;2023-03-08T14:52:47;4.60;99.90
15638;DHT22;26604;53.596;10.042;2023-03-08T14:55:18;4.60;99.90
15638;DHT22;26604;53.596;10.042;2023-03-08T14:57:45;4.70;99.90
15638;DHT22;26604;53.596;10.042;2023-03-08T15:00:13;4.80;99.90
15638;DHT22;26604;53.596;10.042;2023-03-08T15:02:41;4.80;99.90
15638;DHT22;26604;53.596;10.042;2023-03-08T15:05:11;5.00;99.90
15638;DHT22;26604;53.596;10.042;2023-03-08T15:07:38;5.10;99.90
15638;DHT22;26604;53.596;10.042;2023-03-08T15:10:05;5.10;99.90
15638;DHT22;26604;53.596;10.042;2023-03-08T15:12:32;5.20;99.90
15638;DHT22;26604;53.596;10.042;2023-03-08T15:14:59;5.20;99.90
15638;DHT22;26604;53.596;10.042;2023-03-08T15:17:26;5.20;99.90
15638;DHT22;26604;53.596;10.042;2023-03-08T15:19:54;5.20;99.90
15638;DHT22;26604;53.596;10.042;2023-03-08T15:22:21;5.20;99.90
15638;DHT22;26604;53.596;10.042;2023-03-08T15:24:47;5.20;99.90
15638;DHT22;26604;53.596;10.042;2023-03-08T15:27:14;5.20;99.90
15638;DHT22;26604;53.596;10.042;2023-03-08T15:29:41;5.10;99.90
15638;DHT22;26604;53.596;10.042;2023-03-08T15:32:08;5.10;99.90
15638;DHT22;26604;53.596;10.042;2023-03-08T15:34:34;5.10;99.90
15638;DHT22;26604;53.596;10.042;2023-03-08T15:37:02;5.10;99.90
15638;DHT22;26604;53.596;10.042;2023-03-08T15:39:29;5.00;99.90
15638;DHT22;26604;53.596;10.042;2023-03-08T15:41:56;5.00;99.90
15638;DHT22;26604;53.596;10.042;2023-03-08T15:44:22;4.90;99.90
15638;DHT22;26604;53.596;10.042;2023-03-08T15:46:49;4.90;99.90
15638;DHT22;26604;53.596;10.042;2023-03-08T15:49:16;4.80;99.90
15638;DHT22;26604;53.596;10.042;2023-03-08T15:51:42;4.70;99.90
15638;DHT22;26604;53.596;10.042;2023-03-08T15:54:10;4.70;99.90
15638;DHT22;26604;53.596;10.042;2023-03-08T15:56:37;4.60;99.90
15638;DHT22;26604;53.596;10.042;2023-03-08T15:59:04;4.60;99.90
15638;DHT22;26604;53.596;10.042;2023-03-08T16:01:30;4.60;99.90
15638;DHT22;26604;53.596;10.042;2023-03-08T16:03:58;4.50;99.90
15638;DHT22;26604;53.596;10.042;2023-03-08T16:06:25;4.50;99.90
15638;DHT22;26604;53.596;10.042;2023-03-08T16:08:55;4.40;99.90
15638;DHT22;26604;53.596;10.042;2023-03-08T16:11:24;6.30;99.90
15638;DHT22;26604;53.596;10.042;2023-03-08T16:13:53;3.90;99.90
15638;DHT22;26604;53.596;10.042;2023-03-08T16:16:20;4.30;99.90
15638;DHT22;26604;53.596;10.042;2023-03-08T16:18:46;2.30;99.90
15638;DHT22;26604;53.596;10.042;2023-03-08T16:21:13;4.30;99.90
15638;DHT22;26604;53.596;10.042;2023-03-08T16:23:40;4.10;99.90
15638;DHT22;26604;53.596;10.042;2023-03-08T16:26:11;4.10;99.90
15638;DHT22;26604;53.596;10.042;2023-03-08T16:28:39;4.70;99.90
15638;DHT22;26604;53.596;10.042;2023-03-08T16:31:06;3.90;99.90
15638;DHT22;26604;53.596;10.042;2023-03-08T16:33:34;3.90;99.90
15638;DHT22;26604;53.596;10.042;2023-03-08T16:36:01;3.90;99.90
15638;DHT22;26604;53.596;10.042;2023-03-08T16:38:29;3.80;99.90
15638;DHT22;26604;53.596;10.042;2023-03-08T16:40:58;3.80;99.90
15638;DHT22;26604;53.596;10.042;2023-03-08T16:43:24;3.70;99.90
15638;DHT22;26604;53.596;10.042;2023-03-08T16:45:53;3.70;99.90
15638;DHT22;26604;53.596;10.042;2023-03-08T16:48:20;3.60;99.90
15638;DHT22;26604;53.596;10.042;2023-03-08T16:50:51;3.60;99.90
15638;DHT22;26604;53.596;10.042;2023-03-08T16:53:18;3.50;99.90
15638;DHT22;26604;53.596;10.042;2023-03-08T16:55:44;3.40;99.90
15638;DHT22;26604;53.596;10.042;2023-03-08T16:58:11;3.40;99.90
15638;DHT22;26604;53.596;10.042;2023-03-08T17:00:38;3.30;99.90
15638;DHT22;26604;53.596;10.042;2023-03-08T17:03:06;3.20;99.90
15638;DHT22;26604;53.596;10.042;2023-03-08T17:05:33;3.10;99.90
15638;DHT22;26604;53.596;10.042;2023-03-08T17:08:03;3.10;99.90
15638;DHT22;26604;53.596;10.042;2023-03-08T17:10:34;3.00;99.90
15638;DHT22;26604;53.596;10.042;2023-03-08T17:13:01;2.90;99.90
15638;DHT22;26604;53.596;10.042;2023-03-08T17:15:28;2.80;99.90
15638;DHT22;26604;53.596;10.042;2023-03-08T17:17:54;2.70;99.90
15638;DHT22;26604;53.596;10.042;2023-03-08T17:20:22;2.10;99.90
15638;DHT22;26604;53.596;10.042;2023-03-08T17:22:49;2.70;99.90
15638;DHT22;26604;53.596;10.042;2023-03-08T17:25:17;3.50;99.90
15638;DHT22;26604;53.596;10.042;2023-03-08T17:27:44;2.70;99.90
15638;DHT22;26604;53.596;10.042;2023-03-08T17:30:11;3.90;99.90
15638;DHT22;26604;53.596;10.042;2023-03-08T17:32:40;3.20;99.90
15638;DHT22;26604;53.596;10.042;2023-03-08T17:35:07;2.80;99.90
15638;DHT22;26604;53.596;10.042;2023-03-08T17:37:35;2.50;99.90
15638;DHT22;26604;53.596;10.042;2023-03-08T17:40:06;2.50;99.90
15638;DHT22;26604;53.596;10.042;2023-03-08T17:42:34;2.40;99.90
15638;DHT22;26604;53.596;10.042;2023-03-08T17:45:00;2.40;99.90
15638;DHT22;26604;53.596;10.042;2023-03-08T17:47:30;2.40;99.90
15638;DHT22;26604;53.596;10.042;2023-03-08T17:49:57;2.30;99.90
15638;DHT22;26604;53.596;10.042;2023-03-08T17:52:24;2.30;99.90
15638;DHT22;26604;53.596;10.042;2023-03-08T17:54:52;2.20;99.90
15638;DHT22;26604;53.596;10.042;2023-03-08T17:57:19;2.10;99.90
15638;DHT22;26604;53.596;10.042;2023-03-08T17:59:47;2.10;99.90
15638;DHT22;26604;53.596;10.042;2023-03-08T18:02:13;2.10;99.90
15638;DHT22;26604;53.596;10.042;2023-03-08T18:04:41;2.10;99.90
15638;DHT22;26604;53.596;10.042;2023-03-08T18:07:08;2.10;99.90
15638;DHT22;26604;53.596;10.042;2023-03-08T18:09:34;2.10;99.90
15638;DHT22;26604;53.596;10.042;2023-03-08T18:12:03;2.20;99.90
15638;DHT22;26604;53.596;10.042;2023-03-08T18:14:33;2.10;99.90
15638;DHT22;26604;53.596;10.042;2023-03-08T18:16:59;2.10;99.90
15638;DHT22;26604;53.596;10.042;2023-03-08T18:19:29;2.20;99.90
15638;DHT22;26604;53.596;10.042;2023-03-08T18:21:55;2.10;99.90
15638;DHT22;26604;53.596;10.042;2023-03-08T18:24:22;2.10;99.90
15638;DHT22;26604;53.596;10.042;2023-03-08T18:26:49;2.10;99.90
15638;DHT22;26604;53.596;10.042;2023-03-08T18:29:17;2.00;99.90
15638;DHT22;26604;53.596;10.042;2023-03-08T18:31:44;2.00;99.90